Time;durP1;ratioP1;P1;durP2;ratioP2;P2;SDS_P1;SDS_P2;PMS_P1;PMS_P2;Temp;Humidity;BMP_temperature;BMP_pressure;BME280_temperature;BME280_humidity;BME280_pressure;Samples;Min_cycle;Max_cycle;Signal;HPM_P1;HPM_P2
2021/06/10 00:01:14;;;;;;;6.35;4.70;;;;;;;;;;5056280;28;20033;-74
2021/06/10 00:03:40;;;;;;;14.05;4.65;;;;;;;;;;5056590;28;20044;-74
2021/06/10 00:06:05;;;;;;;7.60;4.20;;;;;;;;;;5056624;28;20509;-74
2021/06/10 00:08:32;;;;;;;5.35;4.07;;;;;;;;;;5056251;28;20036;-75
2021/06/10 00:10:58;;;;;;;4.90;4.40;;;;;;;;;;5055307;28;20036;-75
2021/06/10 00:13:23;;;;;;;8.77;4.50;;;;;;;;;;5056550;28;20043;-75
2021/06/10 00:15:49;;;;;;;7.65;4.10;;;;;;;;;;5055801;28;20036;-75
2021/06/10 00:18:14;;;;;;;11.52;5.40;;;;;;;;;;5055743;28;20033;-75
2021/06/10 00:20:40;;;;;;;8.27;4.68;;;;;;;;;;5055027;28;20028;-74
2021/06/10 00:23:07;;;;;;;5.10;4.53;;;;;;;;;;5056133;28;20032;-75
2021/06/10 00:25:33;;;;;;;123.45;6.68;;;;;;;;;;5056297;28;20028;-75
2021/06/10 00:28:00;;;;;;;44.75;5.50;;;;;;;;;;5054943;28;20036;-75
2021/06/10 00:30:26;;;;;;;375.15;12.02;;;;;;;;;;5055798;28;20068;-75
2021/06/10 00:32:52;;;;;;;16.48;5.60;;;;;;;;;;5055877;28;20060;-75
2021/06/10 00:35:20;;;;;;;5.35;4.00;;;;;;;;;;5054678;28;20052;-74
2021/06/10 00:37:46;;;;;;;6.63;4.20;;;;;;;;;;5056083;28;20032;-75
2021/06/10 00:40:13;;;;;;;4.40;3.95;;;;;;;;;;5056276;28;20438;-74
2021/06/10 00:42:39;;;;;;;30.15;4.43;;;;;;;;;;5055595;28;20091;-76
2021/06/10 00:45:11;;;;;;;55.22;5.35;;;;;;;;;;5037903;28;20043;-75
2021/06/10 00:47:36;;;;;;;63.63;5.82;;;;;;;;;;5055384;28;20043;-75
2021/06/10 00:50:04;;;;;;;9.85;4.38;;;;;;;;;;5055801;28;20037;-75
2021/06/10 00:52:29;;;;;;;5.45;4.93;;;;;;;;;;5055324;28;20573;-74
2021/06/10 00:54:55;;;;;;;12.95;5.43;;;;;;;;;;5055552;28;20107;-75
2021/06/10 00:57:20;;;;;;;6.05;4.50;;;;;;;;;;5055426;28;20368;-75
2021/06/10 00:59:46;;;;;;;18.48;5.75;;;;;;;;;;5055263;28;20036;-74
2021/06/10 01:02:11;;;;;;;6.03;4.57;;;;;;;;;;5055108;28;20037;-75
2021/06/10 01:04:37;;;;;;;12.23;5.32;;;;;;;;;;5055489;28;20048;-75
2021/06/10 01:07:06;;;;;;;9.95;5.00;;;;;;;;;;5055539;28;20033;-75
2021/06/10 01:09:57;;;;;;;14.98;4.90;;;;;;;;;;5055355;28;20048;-75
2021/06/10 01:12:41;;;;;;;10.35;4.80;;;;;;;;;;5055197;28;20044;-74
2021/06/10 01:15:10;;;;;;;10.93;5.18;;;;;;;;;;5055307;28;20025;-74
2021/06/10 01:17:43;;;;;;;254.32;8.93;;;;;;;;;;5054697;28;20072;-75
2021/06/10 01:20:12;;;;;;;89.75;6.45;;;;;;;;;;5054166;28;20041;-74
2021/06/10 01:22:56;;;;;;;9.50;5.07;;;;;;;;;;5054990;28;20041;-75
2021/06/10 01:25:38;;;;;;;6.38;4.82;;;;;;;;;;5054136;28;20072;-75
2021/06/10 01:28:08;;;;;;;4.95;4.40;;;;;;;;;;5055319;28;20033;-75
2021/06/10 01:30:50;;;;;;;41.40;6.20;;;;;;;;;;5053310;28;20029;-75
2021/06/10 01:33:19;;;;;;;9.88;5.20;;;;;;;;;;5054802;28;20044;-75
2021/06/10 01:35:51;;;;;;;11.98;5.70;;;;;;;;;;5054496;28;20064;-75
2021/06/10 01:38:18;;;;;;;70.72;7.35;;;;;;;;;;5054845;28;20047;-74
2021/06/10 01:40:44;;;;;;;55.33;6.55;;;;;;;;;;5054535;28;20056;-74
2021/06/10 01:43:12;;;;;;;53.05;7.30;;;;;;;;;;5054496;28;20750;-75
2021/06/10 01:45:38;;;;;;;80.40;8.65;;;;;;;;;;5054057;28;20043;-75
2021/06/10 01:48:04;;;;;;;22.35;5.65;;;;;;;;;;5054513;28;20035;-75
2021/06/10 01:50:31;;;;;;;36.70;5.22;;;;;;;;;;5054711;28;20037;-75
2021/06/10 01:52:59;;;;;;;6.45;5.13;;;;;;;;;;5053182;28;20037;-74
2021/06/10 01:55:28;;;;;;;10.27;5.72;;;;;;;;;;5054441;28;20056;-75
2021/06/10 01:57:56;;;;;;;6.43;5.55;;;;;;;;;;5053779;28;20033;-75
2021/06/10 02:00:22;;;;;;;6.80;5.30;;;;;;;;;;5052104;28;20040;-74
2021/06/10 02:02:50;;;;;;;8.90;5.40;;;;;;;;;;5054149;28;20068;-75
2021/06/10 02:05:19;;;;;;;7.70;6.43;;;;;;;;;;5054435;28;20044;-75
2021/06/10 02:07:45;;;;;;;6.90;5.90;;;;;;;;;;5053519;28;20041;-75
2021/06/10 02:10:15;;;;;;;9.45;5.45;;;;;;;;;;5053047;28;20036;-75
2021/06/10 02:12:44;;;;;;;8.05;6.07;;;;;;;;;;5053466;28;20096;-74
2021/06/10 02:15:11;;;;;;;9.95;6.95;;;;;;;;;;5053743;28;20491;-75
2021/06/10 02:17:37;;;;;;;6.03;5.43;;;;;;;;;;5053710;28;20033;-78
2021/06/10 02:20:06;;;;;;;6.43;5.75;;;;;;;;;;5056371;28;20520;-78
2021/06/10 02:22:35;;;;;;;12.80;5.38;;;;;;;;;;5053687;28;20036;-78
2021/06/10 02:25:01;;;;;;;5.40;4.68;;;;;;;;;;5055207;28;20041;-79
2021/06/10 02:27:27;;;;;;;8.88;4.38;;;;;;;;;;5055265;28;20029;-78
2021/06/10 02:29:53;;;;;;;9.63;4.70;;;;;;;;;;5055586;28;20033;-78
2021/06/10 02:32:19;;;;;;;5.25;4.47;;;;;;;;;;5055110;28;20037;-78
2021/06/10 02:34:44;;;;;;;6.47;4.30;;;;;;;;;;5054477;28;20521;-78
2021/06/10 02:37:12;;;;;;;7.03;4.07;;;;;;;;;;5056229;28;20072;-79
2021/06/10 02:39:39;;;;;;;6.03;4.55;;;;;;;;;;5055442;28;20455;-78
2021/06/10 02:42:06;;;;;;;7.13;4.70;;;;;;;;;;5055463;28;20068;-78
2021/06/10 02:44:33;;;;;;;34.03;4.70;;;;;;;;;;5055910;28;20060;-79
2021/06/10 02:47:03;;;;;;;11.02;3.90;;;;;;;;;;5056096;28;20057;-79
2021/06/10 02:49:30;;;;;;;6.18;4.72;;;;;;;;;;5056588;28;20045;-79
2021/06/10 02:51:55;;;;;;;5.38;4.78;;;;;;;;;;5057030;28;20033;-82
2021/06/10 02:54:22;;;;;;;6.03;4.55;;;;;;;;;;5064129;28;20033;-78
2021/06/10 02:56:49;;;;;;;5.63;4.88;;;;;;;;;;5064262;28;20049;-77
2021/06/10 02:59:19;;;;;;;7.78;4.60;;;;;;;;;;5058954;28;20047;-80
2021/06/10 03:01:45;;;;;;;14.27;6.13;;;;;;;;;;5055946;28;20546;-80
2021/06/10 03:04:14;;;;;;;9.25;5.63;;;;;;;;;;5055701;28;20033;-81
2021/06/10 03:06:40;;;;;;;5.20;4.70;;;;;;;;;;5054692;28;20032;-81
2021/06/10 03:09:06;;;;;;;11.82;4.65;;;;;;;;;;5055928;28;20159;-81
2021/06/10 03:11:33;;;;;;;7.63;5.03;;;;;;;;;;5056132;28;20123;-80
2021/06/10 03:13:59;;;;;;;7.60;5.13;;;;;;;;;;5055453;28;20029;-81
2021/06/10 03:16:25;;;;;;;14.00;5.30;;;;;;;;;;5055178;28;20090;-80
2021/06/10 03:18:52;;;;;;;7.65;4.75;;;;;;;;;;5053924;28;20041;-80
2021/06/10 03:21:19;;;;;;;36.63;5.07;;;;;;;;;;5055685;28;20033;-80
2021/06/10 03:23:45;;;;;;;13.00;5.00;;;;;;;;;;5055379;28;20048;-80
2021/06/10 03:26:11;;;;;;;8.32;5.05;;;;;;;;;;5055310;28;20467;-80
2021/06/10 03:28:37;;;;;;;5.30;4.80;;;;;;;;;;5061866;28;20032;-80
2021/06/10 03:31:03;;;;;;;7.07;4.80;;;;;;;;;;5074468;28;20040;-80
2021/06/10 03:33:28;;;;;;;8.45;5.20;;;;;;;;;;5075062;28;20036;-80
2021/06/10 03:35:55;;;;;;;5.03;4.50;;;;;;;;;;5074783;28;20039;-80
2021/06/10 03:38:21;;;;;;;7.38;5.03;;;;;;;;;;5074980;28;20127;-80
2021/06/10 03:40:48;;;;;;;14.10;5.47;;;;;;;;;;5073190;28;20402;-80
2021/06/10 03:43:16;;;;;;;5.80;5.00;;;;;;;;;;5074467;28;20049;-80
2021/06/10 03:45:41;;;;;;;5.85;4.78;;;;;;;;;;5073546;28;20036;-80
2021/06/10 03:48:09;;;;;;;5.80;4.80;;;;;;;;;;5074853;28;20382;-80
2021/06/10 03:50:38;;;;;;;5.30;4.68;;;;;;;;;;5056557;28;20058;-80
2021/06/10 03:53:05;;;;;;;5.53;4.60;;;;;;;;;;5074437;28;20043;-80
2021/06/10 03:55:31;;;;;;;11.45;4.97;;;;;;;;;;5074768;28;20043;-80
2021/06/10 03:57:57;;;;;;;5.80;4.70;;;;;;;;;;5071476;28;20040;-80
2021/06/10 04:00:22;;;;;;;17.02;5.32;;;;;;;;;;5054906;28;20029;-80
2021/06/10 04:02:48;;;;;;;5.40;4.35;;;;;;;;;;5054398;28;20547;-80
2021/06/10 04:05:13;;;;;;;7.78;4.40;;;;;;;;;;5054071;28;20041;-80
2021/06/10 04:07:39;;;;;;;4.80;4.40;;;;;;;;;;5054588;28;20037;-80
2021/06/10 04:10:06;;;;;;;64.47;6.13;;;;;;;;;;5054249;28;20043;-80
2021/06/10 04:12:32;;;;;;;7.57;4.82;;;;;;;;;;5054292;28;20537;-80
2021/06/10 04:14:57;;;;;;;5.20;4.57;;;;;;;;;;5054665;28;20029;-79
2021/06/10 04:17:23;;;;;;;7.43;5.20;;;;;;;;;;5054100;28;20043;-79
2021/06/10 04:19:49;;;;;;;18.67;6.18;;;;;;;;;;5054765;28;20048;-80
2021/06/10 04:22:15;;;;;;;14.27;5.63;;;;;;;;;;5054039;28;20158;-80
2021/06/10 04:24:40;;;;;;;5.72;5.13;;;;;;;;;;5054338;28;20127;-80
2021/06/10 04:27:06;;;;;;;7.75;5.15;;;;;;;;;;5054286;28;20029;-80
2021/06/10 04:29:32;;;;;;;5.63;5.07;;;;;;;;;;5069652;28;20094;-80
2021/06/10 04:31:57;;;;;;;8.43;5.72;;;;;;;;;;5075701;28;20036;-80
2021/06/10 04:34:23;;;;;;;10.70;5.82;;;;;;;;;;5077720;28;20082;-80
2021/06/10 04:36:48;;;;;;;6.00;5.05;;;;;;;;;;5077626;28;20076;-79
2021/06/10 04:39:14;;;;;;;7.00;5.90;;;;;;;;;;5077805;28;20040;-79
2021/06/10 04:41:40;;;;;;;5.28;4.78;;;;;;;;;;5076265;28;20500;-79
2021/06/10 04:44:05;;;;;;;9.63;5.53;;;;;;;;;;5075917;28;20100;-79
2021/06/10 04:46:32;;;;;;;7.70;5.22;;;;;;;;;;5077193;28;20058;-80
2021/06/10 04:48:59;;;;;;;8.50;5.70;;;;;;;;;;5077700;28;20119;-79
2021/06/10 04:51:25;;;;;;;9.15;5.53;;;;;;;;;;5076591;28;20056;-79
2021/06/10 04:53:53;;;;;;;6.90;4.82;;;;;;;;;;5078068;28;20085;-79
2021/06/10 04:56:20;;;;;;;8.77;5.78;;;;;;;;;;5077488;28;20033;-80
2021/06/10 04:58:46;;;;;;;6.68;5.50;;;;;;;;;;5067557;28;20239;-80
2021/06/10 05:01:11;;;;;;;6.75;5.38;;;;;;;;;;5058336;28;20131;-81
2021/06/10 05:03:36;;;;;;;8.70;6.30;;;;;;;;;;5059916;28;20194;-80
2021/06/10 05:06:02;;;;;;;12.93;4.78;;;;;;;;;;5059345;28;20033;-80
2021/06/10 05:08:28;;;;;;;6.78;5.32;;;;;;;;;;5059846;28;20036;-80
2021/06/10 05:10:53;;;;;;;6.47;5.72;;;;;;;;;;5058791;28;20037;-80
2021/06/10 05:13:19;;;;;;;11.20;5.93;;;;;;;;;;5059993;28;20049;-80
2021/06/10 05:15:44;;;;;;;63.50;6.65;;;;;;;;;;5059429;28;20032;-79
2021/06/10 05:18:10;;;;;;;6.60;5.90;;;;;;;;;;5059575;28;20040;-80
2021/06/10 05:20:35;;;;;;;7.20;6.50;;;;;;;;;;5059377;28;20041;-79
2021/06/10 05:23:01;;;;;;;6.18;5.20;;;;;;;;;;5059422;28;20032;-80
2021/06/10 05:25:27;;;;;;;6.28;5.68;;;;;;;;;;5059336;28;20036;-80
2021/06/10 05:27:52;;;;;;;30.55;6.72;;;;;;;;;;5056274;28;20036;-79
2021/06/10 05:30:18;;;;;;;11.90;5.55;;;;;;;;;;5038875;28;20443;-79
2021/06/10 05:32:44;;;;;;;9.35;6.60;;;;;;;;;;5039055;28;20033;-80
2021/06/10 05:35:09;;;;;;;7.55;6.25;;;;;;;;;;5037532;28;20033;-79
2021/06/10 05:37:35;;;;;;;6.88;5.53;;;;;;;;;;5038862;28;20042;-79
2021/06/10 05:40:00;;;;;;;8.40;6.10;;;;;;;;;;5037700;28;20037;-79
2021/06/10 05:42:26;;;;;;;6.20;5.55;;;;;;;;;;5035812;28;20041;-79
2021/06/10 05:44:51;;;;;;;14.30;6.63;;;;;;;;;;5038240;28;20092;-79
2021/06/10 05:47:16;;;;;;;7.47;6.30;;;;;;;;;;5037869;28;20041;-79
2021/06/10 05:49:42;;;;;;;10.50;5.70;;;;;;;;;;5038484;28;20057;-79
2021/06/10 05:52:07;;;;;;;6.90;5.78;;;;;;;;;;5038896;28;20048;-79
2021/06/10 05:54:33;;;;;;;7.03;5.88;;;;;;;;;;5038194;28;20057;-79
2021/06/10 05:56:58;;;;;;;7.88;6.05;;;;;;;;;;5038093;28;20037;-79
2021/06/10 05:59:25;;;;;;;11.68;6.25;;;;;;;;;;5052009;28;20029;-79
2021/06/10 06:01:51;;;;;;;17.25;6.05;;;;;;;;;;5057830;28;20083;-79
2021/06/10 06:04:16;;;;;;;12.13;6.40;;;;;;;;;;5057550;28;20040;-79
2021/06/10 06:06:43;;;;;;;19.73;7.13;;;;;;;;;;5057612;28;20024;-79
2021/06/10 06:09:08;;;;;;;7.88;6.80;;;;;;;;;;5057753;28;20041;-79
2021/06/10 06:11:35;;;;;;;7.05;6.35;;;;;;;;;;5057528;28;20090;-79
2021/06/10 06:16:33;;;;;;;14.43;7.68;;;;;;;;;;5059832;28;20174;-79
2021/06/10 06:18:59;;;;;;;7.15;6.15;;;;;;;;;;5058694;28;20486;-79
2021/06/10 06:21:25;;;;;;;16.65;7.35;;;;;;;;;;5056860;28;20032;-76
2021/06/10 06:23:50;;;;;;;19.23;7.57;;;;;;;;;;5054818;28;20395;-76
2021/06/10 06:26:16;;;;;;;46.85;7.32;;;;;;;;;;5055144;28;20052;-77
2021/06/10 06:28:41;;;;;;;7.95;6.70;;;;;;;;;;5055722;28;20475;-76
2021/06/10 06:31:08;;;;;;;9.65;8.30;;;;;;;;;;5055673;28;20469;-76
2021/06/10 06:33:34;;;;;;;9.25;7.75;;;;;;;;;;5054980;28;20046;-76
2021/06/10 06:36:00;;;;;;;16.98;8.90;;;;;;;;;;5038336;28;20040;-76
2021/06/10 06:38:26;;;;;;;11.48;7.47;;;;;;;;;;5054666;28;20036;-77
2021/06/10 06:40:51;;;;;;;20.95;8.15;;;;;;;;;;5055078;28;20037;-77
2021/06/10 06:43:17;;;;;;;14.90;7.70;;;;;;;;;;5053311;28;20059;-77
2021/06/10 06:45:43;;;;;;;16.10;8.10;;;;;;;;;;5054017;28;20036;-76
2021/06/10 06:48:09;;;;;;;7.03;6.30;;;;;;;;;;5053911;28;20036;-76
2021/06/10 06:50:35;;;;;;;70.90;8.48;;;;;;;;;;5054321;28;20368;-76
2021/06/10 06:53:01;;;;;;;49.70;8.23;;;;;;;;;;5055407;28;20037;-78
2021/06/10 06:55:26;;;;;;;43.95;9.90;;;;;;;;;;5054088;28;20445;-76
2021/06/10 06:57:52;;;;;;;12.55;8.32;;;;;;;;;;5051443;28;20021;-75
2021/06/10 07:00:18;;;;;;;31.00;8.35;;;;;;;;;;5032165;28;20098;-74
2021/06/10 07:02:43;;;;;;;18.83;9.45;;;;;;;;;;5033509;28;20072;-75
2021/06/10 07:05:10;;;;;;;61.60;10.15;;;;;;;;;;5031942;28;20498;-75
2021/06/10 07:07:36;;;;;;;16.38;8.38;;;;;;;;;;5033010;28;20029;-75
2021/06/10 07:10:01;;;;;;;11.13;8.30;;;;;;;;;;5033439;28;20124;-74
2021/06/10 07:12:27;;;;;;;11.23;9.70;;;;;;;;;;5033353;28;20041;-76
2021/06/10 07:14:52;;;;;;;13.68;8.77;;;;;;;;;;5032817;28;20037;-76
2021/06/10 07:17:18;;;;;;;10.32;8.73;;;;;;;;;;5040705;28;20037;-75
2021/06/10 07:19:43;;;;;;;11.18;8.90;;;;;;;;;;5053235;28;20163;-75
2021/06/10 07:22:09;;;;;;;18.67;8.88;;;;;;;;;;5052979;28;20387;-76
2021/06/10 07:24:35;;;;;;;15.05;8.88;;;;;;;;;;5053120;28;20033;-76
2021/06/10 07:27:02;;;;;;;7.75;7.03;;;;;;;;;;5052264;28;20051;-75
2021/06/10 07:29:27;;;;;;;8.40;7.53;;;;;;;;;;5051507;28;20090;-76
2021/06/10 07:31:53;;;;;;;10.18;8.35;;;;;;;;;;5052319;28;20036;-76
2021/06/10 07:34:18;;;;;;;7.72;6.93;;;;;;;;;;5053635;28;20375;-76
2021/06/10 07:36:44;;;;;;;9.95;7.57;;;;;;;;;;5053591;28;20041;-77
2021/06/10 07:39:10;;;;;;;13.32;8.63;;;;;;;;;;5053392;28;20028;-77
2021/06/10 07:41:37;;;;;;;9.85;8.85;;;;;;;;;;5053058;28;20036;-76
2021/06/10 07:44:03;;;;;;;9.85;8.43;;;;;;;;;;5053464;28;20049;-75
2021/06/10 07:46:29;;;;;;;10.45;9.18;;;;;;;;;;5052619;28;20032;-76
2021/06/10 07:48:55;;;;;;;6.90;6.20;;;;;;;;;;5051918;28;20032;-76
2021/06/10 07:51:20;;;;;;;8.05;6.70;;;;;;;;;;5052282;28;20044;-77
2021/06/10 07:53:46;;;;;;;51.38;32.97;;;;;;;;;;5053244;28;20037;-78
2021/06/10 07:56:11;;;;;;;10.48;9.38;;;;;;;;;;5052447;28;20041;-76
2021/06/10 07:58:37;;;;;;;8.93;8.00;;;;;;;;;;5053418;28;20040;-76
2021/06/10 08:01:04;;;;;;;9.80;7.25;;;;;;;;;;5050992;28;20036;-76
2021/06/10 08:03:30;;;;;;;8.63;7.72;;;;;;;;;;5051360;28;20406;-77
2021/06/10 08:05:56;;;;;;;9.13;8.18;;;;;;;;;;5054646;28;20025;-77
2021/06/10 08:08:23;;;;;;;7.72;6.85;;;;;;;;;;5056990;28;20052;-77
2021/06/10 08:10:49;;;;;;;12.65;9.43;;;;;;;;;;5056549;28;20124;-77
2021/06/10 08:13:17;;;;;;;7.70;6.88;;;;;;;;;;5056460;28;20108;-77
2021/06/10 08:15:42;;;;;;;9.70;8.70;;;;;;;;;;5056110;28;20036;-76
2021/06/10 08:18:08;;;;;;;8.13;6.97;;;;;;;;;;5056404;28;20394;-76
2021/06/10 08:20:33;;;;;;;7.45;6.75;;;;;;;;;;5056468;28;20134;-76
2021/06/10 08:23:00;;;;;;;11.25;9.02;;;;;;;;;;5056671;28;20459;-77
2021/06/10 08:25:28;;;;;;;8.85;6.68;;;;;;;;;;5057170;28;20043;-79
2021/06/10 08:27:55;;;;;;;8.57;7.68;;;;;;;;;;5059350;28;20044;-82
2021/06/10 08:30:21;;;;;;;8.93;7.68;;;;;;;;;;5060044;28;20037;-77
2021/06/10 08:32:47;;;;;;;10.60;7.68;;;;;;;;;;5036181;28;20071;-78
2021/06/10 08:35:12;;;;;;;8.93;8.07;;;;;;;;;;5036180;28;20029;-76
2021/06/10 08:37:38;;;;;;;9.65;8.75;;;;;;;;;;5034303;28;20395;-76
2021/06/10 08:40:08;;;;;;;9.52;8.63;;;;;;;;;;5035990;28;20116;-76
2021/06/10 08:42:36;;;;;;;10.88;9.88;;;;;;;;;;5035512;28;20033;-76
2021/06/10 08:45:03;;;;;;;9.77;8.40;;;;;;;;;;5052753;28;20086;-76
2021/06/10 08:47:28;;;;;;;10.68;9.10;;;;;;;;;;5055757;28;20394;-75
2021/06/10 08:49:55;;;;;;;13.00;10.90;;;;;;;;;;5054607;28;20124;-77
2021/06/10 08:52:20;;;;;;;12.23;9.15;;;;;;;;;;5055536;28;20056;-78
2021/06/10 08:54:46;;;;;;;11.30;9.80;;;;;;;;;;5046651;28;20079;-76
2021/06/10 08:57:11;;;;;;;17.35;11.48;;;;;;;;;;5052652;28;20041;-76
2021/06/10 08:59:37;;;;;;;11.60;10.30;;;;;;;;;;5058580;28;20082;-83
2021/06/10 09:02:03;;;;;;;16.10;11.13;;;;;;;;;;5060142;28;20033;-83
2021/06/10 09:04:28;;;;;;;11.80;10.55;;;;;;;;;;5060388;28;20079;-84
2021/06/10 09:06:54;;;;;;;12.80;10.60;;;;;;;;;;5060141;28;20032;-82
2021/06/10 09:09:21;;;;;;;13.55;10.23;;;;;;;;;;5059871;28;20029;-83
2021/06/10 09:11:48;;;;;;;11.10;9.88;;;;;;;;;;5059719;28;20123;-83
2021/06/10 09:14:14;;;;;;;14.40;9.38;;;;;;;;;;5055380;28;20395;-82
2021/06/10 09:16:40;;;;;;;10.85;9.50;;;;;;;;;;5039504;28;20033;-82
2021/06/10 09:19:16;;;;;;;11.68;9.07;;;;;;;;;;5039751;28;20136;-82
2021/06/10 09:21:41;;;;;;;9.43;8.52;;;;;;;;;;5040666;28;20037;-84
2021/06/10 09:24:35;;;;;;;11.35;8.90;;;;;;;;;;5040555;28;20044;-83
2021/06/10 09:27:08;;;;;;;9.63;7.95;;;;;;;;;;5040300;28;20037;-83
2021/06/10 09:29:34;;;;;;;11.63;8.93;;;;;;;;;;5073044;28;20040;-83
2021/06/10 09:32:00;;;;;;;9.93;7.75;;;;;;;;;;5044975;28;20116;-84
2021/06/10 09:34:29;;;;;;;8.85;7.55;;;;;;;;;;5040599;28;20072;-84
2021/06/10 09:36:54;;;;;;;12.48;8.23;;;;;;;;;;5039882;28;20172;-82
2021/06/10 09:39:23;;;;;;;8.43;6.85;;;;;;;;;;5039959;28;20513;-82
2021/06/10 09:42:05;;;;;;;10.75;7.47;;;;;;;;;;5038293;28;20037;-81
2021/06/10 09:44:44;;;;;;;10.32;6.82;;;;;;;;;;5038705;28;20064;-83
2021/06/10 09:47:10;;;;;;;7.40;6.70;;;;;;;;;;5037360;28;20091;-80
2021/06/10 09:49:36;;;;;;;7.22;5.53;;;;;;;;;;5040328;28;20380;-75
2021/06/10 09:52:02;;;;;;;10.35;7.55;;;;;;;;;;5047662;28;20029;-77
2021/06/10 09:55:00;;;;;;;9.80;6.53;;;;;;;;;;5048748;28;20033;-76
2021/06/10 09:57:26;;;;;;;8.02;5.70;;;;;;;;;;5031675;28;20492;-76
2021/06/10 09:59:53;;;;;;;13.32;7.05;;;;;;;;;;5051353;28;20044;-76
2021/06/10 10:02:26;;;;;;;9.57;5.53;;;;;;;;;;5054172;28;20111;-76
2021/06/10 10:05:08;;;;;;;10.27;6.55;;;;;;;;;;5054311;28;20041;-76
2021/06/10 10:07:35;;;;;;;7.10;5.88;;;;;;;;;;5053069;28;20036;-76
2021/06/10 10:10:05;;;;;;;7.13;5.28;;;;;;;;;;5052922;28;20402;-76
2021/06/10 10:12:32;;;;;;;8.15;5.78;;;;;;;;;;5054333;28;20037;-76
2021/06/10 10:14:59;;;;;;;9.10;6.18;;;;;;;;;;5053018;28;20037;-76
2021/06/10 10:17:26;;;;;;;8.55;6.25;;;;;;;;;;5052886;28;20431;-76
2021/06/10 10:19:52;;;;;;;10.48;7.10;;;;;;;;;;5053980;28;20060;-76
2021/06/10 10:22:18;;;;;;;9.20;5.95;;;;;;;;;;5054231;28;20071;-76
2021/06/10 10:24:45;;;;;;;11.02;5.93;;;;;;;;;;5053901;28;20029;-76
2021/06/10 10:27:13;;;;;;;12.43;6.20;;;;;;;;;;5054054;28;20060;-76
2021/06/10 10:29:41;;;;;;;10.73;6.43;;;;;;;;;;5069119;28;20044;-76
2021/06/10 10:32:10;;;;;;;11.80;4.90;;;;;;;;;;5073770;28;20043;-76
2021/06/10 10:34:38;;;;;;;6.40;5.45;;;;;;;;;;5073657;28;20028;-76
2021/06/10 10:37:24;;;;;;;11.13;5.22;;;;;;;;;;5073451;28;20547;-76
2021/06/10 10:39:53;;;;;;;6.82;4.50;;;;;;;;;;5073903;28;20123;-76
2021/06/10 10:42:32;;;;;;;8.02;4.68;;;;;;;;;;5073622;28;20029;-76
2021/06/10 10:45:20;;;;;;;8.15;4.07;;;;;;;;;;5071766;28;20127;-76
2021/06/10 10:48:01;;;;;;;8.15;3.65;;;;;;;;;;5072230;28;20397;-76
2021/06/10 10:50:39;;;;;;;4.50;3.30;;;;;;;;;;5073744;28;20390;-76
2021/06/10 10:53:09;;;;;;;6.93;3.50;;;;;;;;;;5073709;28;20039;-75
2021/06/10 10:55:35;;;;;;;6.47;3.00;;;;;;;;;;5072124;28;20113;-76
2021/06/10 10:58:03;;;;;;;9.60;3.00;;;;;;;;;;5068813;28;20036;-76
2021/06/10 11:00:48;;;;;;;4.85;2.72;;;;;;;;;;5052907;28;20079;-76
2021/06/10 11:03:23;;;;;;;8.77;2.90;;;;;;;;;;5053414;28;20548;-76
2021/06/10 11:05:48;;;;;;;6.22;2.45;;;;;;;;;;5053220;28;20383;-76
2021/06/10 11:08:13;;;;;;;5.93;2.65;;;;;;;;;;5052175;28;20048;-76
2021/06/10 11:10:39;;;;;;;6.13;2.80;;;;;;;;;;5053306;28;20032;-76
2021/06/10 11:13:15;;;;;;;7.10;3.20;;;;;;;;;;5053512;28;20116;-76
2021/06/10 11:15:43;;;;;;;6.70;2.85;;;;;;;;;;5052978;28;20513;-76
2021/06/10 11:18:08;;;;;;;10.05;2.83;;;;;;;;;;5052164;28;20471;-76
2021/06/10 11:20:37;;;;;;;3.90;2.83;;;;;;;;;;5052860;28;20029;-76
2021/06/10 11:23:19;;;;;;;11.88;3.60;;;;;;;;;;5053160;28;20043;-76
2021/06/10 11:25:53;;;;;;;8.25;3.35;;;;;;;;;;5053323;28;20052;-76
2021/06/10 11:28:27;;;;;;;5.93;3.03;;;;;;;;;;5051023;28;20055;-76
2021/06/10 11:31:10;;;;;;;;;;;;;;;;;;5053176;28;20036;-76
2021/06/10 11:33:36;;;;;;;5.93;3.63;;;;;;;;;;5053025;28;19916;-76
2021/06/10 11:36:03;;;;;;;7.50;4.25;;;;;;;;;;5053044;28;20036;-76
2021/06/10 11:38:38;;;;;;;5.43;4.40;;;;;;;;;;5053084;28;20107;-76
2021/06/10 11:41:14;;;;;;;6.32;3.53;;;;;;;;;;5054079;28;20047;-76
2021/06/10 11:43:42;;;;;;;8.93;3.45;;;;;;;;;;5055717;28;20045;-76
2021/06/10 11:46:12;;;;;;;7.80;4.05;;;;;;;;;;5056975;28;20044;-76
2021/06/10 11:48:41;;;;;;;7.03;4.03;;;;;;;;;;5056983;28;20542;-76
2021/06/10 11:51:31;;;;;;;5.85;3.42;;;;;;;;;;5057059;28;20477;-76
2021/06/10 11:54:07;;;;;;;6.57;4.25;;;;;;;;;;5057232;28;20055;-76
2021/06/10 11:56:33;;;;;;;7.03;3.72;;;;;;;;;;5057083;28;20041;-75
2021/06/10 11:59:23;;;;;;;7.82;4.47;;;;;;;;;;5056983;28;20158;-76
2021/06/10 12:02:02;;;;;;;8.48;4.13;;;;;;;;;;5056498;28;20035;-76
2021/06/10 12:04:28;;;;;;;9.05;4.85;;;;;;;;;;5056678;28;20142;-76
2021/06/10 12:07:08;;;;;;;11.05;4.43;;;;;;;;;;5056542;28;20025;-76
2021/06/10 12:09:34;;;;;;;10.93;5.07;;;;;;;;;;5056770;28;20037;-76
2021/06/10 12:11:59;;;;;;;7.82;4.78;;;;;;;;;;5056696;28;20108;-76
2021/06/10 12:14:40;;;;;;;8.48;5.30;;;;;;;;;;5056402;28;20052;-76
2021/06/10 12:17:07;;;;;;;33.72;10.68;;;;;;;;;;5055000;28;20116;-76
2021/06/10 12:19:33;;;;;;;9.88;4.38;;;;;;;;;;5056552;28;20542;-76
2021/06/10 12:22:00;;;;;;;6.35;4.65;;;;;;;;;;5056593;28;20163;-76
2021/06/10 12:24:26;;;;;;;10.15;4.05;;;;;;;;;;5056382;28;20079;-76
2021/06/10 12:26:51;;;;;;;6.63;4.80;;;;;;;;;;5055121;28;20033;-75
2021/06/10 12:29:16;;;;;;;10.70;4.35;;;;;;;;;;5055773;28;20739;-76
2021/06/10 12:31:42;;;;;;;6.55;3.95;;;;;;;;;;5055000;28;20037;-76
2021/06/10 12:34:09;;;;;;;6.13;4.63;;;;;;;;;;5056176;28;20033;-75
2021/06/10 12:36:42;;;;;;;6.32;4.53;;;;;;;;;;5056069;28;20033;-76
2021/06/10 12:39:11;;;;;;;13.73;5.03;;;;;;;;;;5056168;28;20041;-76
2021/06/10 12:41:41;;;;;;;6.50;3.78;;;;;;;;;;5056001;28;20060;-76
2021/06/10 12:44:11;;;;;;;6.65;3.92;;;;;;;;;;5054509;28;20045;-75
2021/06/10 12:46:50;;;;;;;15.65;4.85;;;;;;;;;;5055663;28;20033;-76
2021/06/10 12:49:26;;;;;;;8.02;4.30;;;;;;;;;;5055516;28;20464;-75
2021/06/10 12:51:52;;;;;;;11.32;3.72;;;;;;;;;;5055405;28;20098;-75
2021/06/10 12:54:39;;;;;;;6.03;3.50;;;;;;;;;;5055682;28;20048;-76
2021/06/10 12:57:04;;;;;;;15.77;3.85;;;;;;;;;;5055788;28;20414;-75
2021/06/10 12:59:37;;;;;;;9.45;4.40;;;;;;;;;;5055781;28;20036;-76
2021/06/10 13:02:08;;;;;;;9.23;3.65;;;;;;;;;;5054800;28;20033;-76
2021/06/10 13:04:39;;;;;;;9.10;3.83;;;;;;;;;;5055208;28;20076;-76
2021/06/10 13:07:07;;;;;;;7.43;3.53;;;;;;;;;;5055427;28;20029;-76
2021/06/10 13:09:32;;;;;;;7.13;3.53;;;;;;;;;;5055789;28;20040;-76
2021/06/10 13:12:17;;;;;;;9.55;3.63;;;;;;;;;;5055600;28;20040;-75
2021/06/10 13:14:44;;;;;;;7.43;3.30;;;;;;;;;;5055482;28;20071;-75
2021/06/10 13:17:12;;;;;;;5.15;2.80;;;;;;;;;;5055205;28;20041;-76
2021/06/10 13:19:45;;;;;;;7.22;2.72;;;;;;;;;;5055119;28;20061;-76
2021/06/10 13:22:12;;;;;;;7.93;2.65;;;;;;;;;;5055369;28;20116;-75
2021/06/10 13:24:47;;;;;;;5.65;2.55;;;;;;;;;;5055396;28;20032;-75
2021/06/10 13:27:21;;;;;;;13.63;3.13;;;;;;;;;;5055205;28;20037;-75
2021/06/10 13:29:57;;;;;;;9.48;3.28;;;;;;;;;;5053337;28;20090;-76
2021/06/10 13:32:30;;;;;;;7.90;2.70;;;;;;;;;;5055153;28;20093;-75
2021/06/10 13:35:00;;;;;;;3.35;2.38;;;;;;;;;;5055218;28;20040;-75
2021/06/10 13:37:26;;;;;;;6.63;2.90;;;;;;;;;;5054194;28;20399;-75
2021/06/10 13:39:52;;;;;;;3.97;2.33;;;;;;;;;;5055053;28;20036;-75
2021/06/10 13:42:21;;;;;;;6.47;2.72;;;;;;;;;;5054926;28;20037;-75
2021/06/10 13:44:47;;;;;;;4.25;2.70;;;;;;;;;;5054360;28;20044;-76
2021/06/10 13:47:13;;;;;;;4.70;2.50;;;;;;;;;;5054021;28;20028;-76
2021/06/10 13:49:39;;;;;;;4.38;2.15;;;;;;;;;;5054947;28;20041;-75
2021/06/10 13:52:05;;;;;;;7.65;1.98;;;;;;;;;;5054788;28;20048;-75
2021/06/10 13:54:31;;;;;;;2.72;2.20;;;;;;;;;;5054489;28;20221;-76
2021/06/10 13:56:56;;;;;;;5.75;2.00;;;;;;;;;;5054468;28;20036;-75
2021/06/10 13:59:22;;;;;;;4.15;1.95;;;;;;;;;;5052273;28;20147;-75
2021/06/10 14:01:48;;;;;;;5.30;2.13;;;;;;;;;;5053089;28;20140;-75
2021/06/10 14:04:13;;;;;;;4.88;2.10;;;;;;;;;;5053614;28;20427;-75
2021/06/10 14:06:38;;;;;;;3.63;1.80;;;;;;;;;;5054501;28;20036;-75
2021/06/10 14:09:05;;;;;;;6.40;2.22;;;;;;;;;;5053668;28;20383;-76
2021/06/10 14:11:30;;;;;;;3.10;2.13;;;;;;;;;;5054444;28;20052;-76
2021/06/10 14:13:56;;;;;;;3.65;1.90;;;;;;;;;;5054004;28;20051;-75
2021/06/10 14:16:22;;;;;;;3.38;2.00;;;;;;;;;;5053028;28;20025;-75
2021/06/10 14:18:49;;;;;;;7.15;2.55;;;;;;;;;;5054244;28;20037;-75
2021/06/10 14:21:17;;;;;;;4.43;1.77;;;;;;;;;;5054355;28;20044;-75
2021/06/10 14:23:43;;;;;;;4.35;1.88;;;;;;;;;;5054023;28;20111;-75
2021/06/10 14:26:09;;;;;;;3.53;2.30;;;;;;;;;;5054076;28;20037;-76
2021/06/10 14:28:37;;;;;;;5.22;2.03;;;;;;;;;;5053740;28;20032;-76
2021/06/10 14:33:47;;;;;;;11.90;1.80;;;;;;;;;;5053962;28;20033;-75
2021/06/10 14:36:12;;;;;;;6.93;1.50;;;;;;;;;;5053882;28;20120;-76
2021/06/10 14:38:38;;;;;;;3.97;1.60;;;;;;;;;;5053449;28;20034;-76
2021/06/10 14:41:03;;;;;;;4.80;1.90;;;;;;;;;;5051773;28;20099;-75
2021/06/10 14:43:28;;;;;;;7.07;1.25;;;;;;;;;;5052004;28;20044;-76
2021/06/10 14:45:54;;;;;;;3.90;1.70;;;;;;;;;;5057119;28;20070;-79
2021/06/10 14:48:19;;;;;;;3.05;1.48;;;;;;;;;;5053887;28;20029;-74